Time;durP1;ratioP1;P1;durP2;ratioP2;P2;SDS_P1;SDS_P2;PMS_P1;PMS_P2;Temp;Humidity;BMP_temperature;BMP_pressure;BME280_temperature;BME280_humidity;BME280_pressure;Samples;Min_cycle;Max_cycle;Signal;HPM_P1;HPM_P2
2022/02/25 00:00:06;;;;;;;4.63;1.27;;;;;;;-145.06;0.00;60892.56;4773632;28;20027;-87
2022/02/25 00:02:45;;;;;;;1.77;1.00;;;;;;;-145.06;0.00;60892.56;4780487;28;20034;-87
2022/02/25 00:05:24;;;;;;;1.87;1.00;;;;;;;-145.06;0.00;60892.56;4776450;29;20038;-87
2022/02/25 00:08:04;;;;;;;;;;;;;;;-145.06;0.00;60892.56;4771900;28;20031;-87
2022/02/25 00:10:43;;;;;;;2.17;1.08;;;;;;;-145.06;0.00;60892.56;4771435;29;20364;-87
2022/02/25 00:13:22;;;;;;;1.98;1.00;;;;;;;-145.06;0.00;60892.56;4780605;28;20046;-88
2022/02/25 00:16:01;;;;;;;1.50;0.90;;;;;;;-145.06;0.00;60892.56;4772321;29;20035;-87
2022/02/25 00:18:40;;;;;;;3.67;1.40;;;;;;;-145.06;0.00;60892.56;4785629;28;20039;-86
2022/02/25 00:21:19;;;;;;;2.13;1.00;;;;;;;-145.06;0.00;60892.56;4776945;29;20279;-87
2022/02/25 00:23:58;;;;;;;2.67;1.13;;;;;;;-145.06;0.00;60892.56;4777654;28;20039;-87
2022/02/25 00:26:37;;;;;;;3.07;1.57;;;;;;;-145.06;0.00;60892.56;4787292;28;20039;-87
2022/02/25 00:29:16;;;;;;;6.60;1.80;;;;;;;-145.06;0.00;60892.56;4787021;28;20621;-87
2022/02/25 00:31:55;;;;;;;5.47;1.67;;;;;;;-145.06;0.00;60892.56;4773774;28;20031;-88
2022/02/25 00:34:34;;;;;;;2.47;1.07;;;;;;;-145.06;0.00;60892.56;4779362;28;20043;-87
2022/02/25 00:37:13;;;;;;;4.00;1.53;;;;;;;-145.06;0.00;60892.56;4771646;29;20043;-87
2022/02/25 00:39:52;;;;;;;3.60;1.48;;;;;;;-145.06;0.00;60892.56;4784408;28;20266;-89
2022/02/25 00:42:32;;;;;;;2.97;1.10;;;;;;;-145.06;0.00;60892.56;4775648;28;20039;-88
2022/02/25 00:45:11;;;;;;;2.10;1.10;;;;;;;-145.06;0.00;60892.56;4783797;28;20302;-86
2022/02/25 00:47:50;;;;;;;2.97;1.10;;;;;;;-145.06;0.00;60892.56;4789947;28;20467;-87
2022/02/25 00:50:29;;;;;;;2.95;1.10;;;;;;;-145.06;0.00;60892.56;4766557;29;20035;-87
2022/02/25 00:53:08;;;;;;;2.85;1.30;;;;;;;-145.06;0.00;60892.56;4785487;28;20042;-87
2022/02/25 00:55:47;;;;;;;3.10;1.10;;;;;;;-145.06;0.00;60892.56;4786727;28;20074;-88
2022/02/25 00:58:26;;;;;;;1.85;1.05;;;;;;;-145.06;0.00;60892.56;4771345;28;20051;-87
2022/02/25 01:01:05;;;;;;;2.37;1.10;;;;;;;-145.06;0.00;60892.56;4774994;28;20477;-87
2022/02/25 01:03:44;;;;;;;2.25;1.25;;;;;;;-145.06;0.00;60892.56;4778537;28;20271;-87
2022/02/25 01:06:24;;;;;;;2.53;1.00;;;;;;;-145.06;0.00;60892.56;4789654;28;20038;-87
2022/02/25 01:09:03;;;;;;;1.88;0.93;;;;;;;-145.06;0.00;60892.56;4780915;28;20031;-86
2022/02/25 01:11:42;;;;;;;1.57;0.90;;;;;;;-145.06;0.00;60892.56;4786327;28;20038;-87
2022/02/25 01:14:21;;;;;;;1.77;0.98;;;;;;;187.52;0.00;60892.56;4759319;29;20262;-87
2022/02/25 01:17:00;;;;;;;1.42;0.70;;;;;;;-145.06;0.00;60892.56;4781088;29;20039;-86
2022/02/25 01:19:39;;;;;;;3.17;1.17;;;;;;;-145.06;0.00;60892.56;4769314;29;20027;-87
2022/02/25 01:22:18;;;;;;;3.58;0.80;;;;;;;-145.06;0.00;60892.56;4765449;29;20086;-87
2022/02/25 01:24:57;;;;;;;1.75;1.00;;;;;;;-145.06;0.00;60892.56;4782646;28;20043;-86
2022/02/25 01:27:36;;;;;;;2.13;1.00;;;;;;;-145.06;0.00;60892.56;4785891;28;20043;-88
2022/02/25 01:30:15;;;;;;;2.15;1.10;;;;;;;-145.06;0.00;60892.56;4765081;28;20047;-87
2022/02/25 01:32:54;;;;;;;1.98;0.60;;;;;;;-145.06;0.00;60892.56;4790623;28;20034;-87
2022/02/25 01:35:35;;;;;;;2.65;0.80;;;;;;;-145.06;0.00;60892.56;4779906;28;20066;-87
2022/02/25 01:38:14;;;;;;;1.75;0.93;;;;;;;-145.06;0.00;60892.56;4781629;29;20043;-86
2022/02/25 01:40:54;;;;;;;2.63;1.07;;;;;;;-145.06;0.00;60892.56;4773549;29;20119;-88
2022/02/25 01:43:33;;;;;;;1.08;0.70;;;;;;;-145.06;0.00;60892.56;4781262;29;20510;-87
2022/02/25 01:46:12;;;;;;;2.67;1.00;;;;;;;21.08;0.00;60892.56;4768685;28;20114;-87
2022/02/25 01:48:51;;;;;;;1.88;0.70;;;;;;;-145.06;0.00;60892.56;4775330;29;20031;-87
2022/02/25 01:51:30;;;;;;;2.25;0.90;;;;;;;-145.06;0.00;60892.56;4766170;28;20043;-87
2022/02/25 01:54:09;;;;;;;1.70;0.93;;;;;;;-145.06;0.00;60892.56;4768664;28;20586;-87
2022/02/25 01:56:49;;;;;;;2.90;1.00;;;;;;;-145.06;0.00;60892.56;4768462;29;20027;-89
2022/02/25 01:59:30;;;;;;;;;;;;;;;-145.06;0.00;60892.56;4792712;28;20039;-88
2022/02/25 02:02:10;;;;;;;5.00;1.40;;;;;;;-145.06;0.00;60892.56;4786463;28;20004;-88
2022/02/25 02:04:49;;;;;;;2.72;0.95;;;;;;;-145.06;0.00;60892.56;4770526;29;20035;-88
2022/02/25 02:07:28;;;;;;;2.30;1.00;;;;;;;-145.06;0.00;60892.56;4768211;29;20473;-88
2022/02/25 02:10:08;;;;;;;2.10;1.10;;;;;;;-145.06;0.00;60892.56;4783897;28;20039;-89
2022/02/25 02:12:47;;;;;;;2.42;1.00;;;;;;;-145.06;0.00;60892.56;4780864;28;20038;-88
2022/02/25 02:15:25;;;;;;;1.70;0.82;;;;;;;-145.06;0.00;60892.56;4771464;29;20507;-89
2022/02/25 02:18:04;;;;;;;2.53;0.70;;;;;;;-145.06;0.00;60892.56;4783803;28;20027;-89
2022/02/25 02:20:43;;;;;;;2.33;1.17;;;;;;;-145.06;0.00;60892.56;4778379;29;20764;-89
2022/02/25 02:23:23;;;;;;;2.80;0.95;;;;;;;-145.06;0.00;60892.56;4774230;29;20039;-89
2022/02/25 02:26:02;;;;;;;2.97;1.25;;;;;;;-145.06;0.00;60892.56;4780426;28;20489;-89
2022/02/25 02:28:40;;;;;;;1.30;0.93;;;;;;;-145.06;0.00;60892.56;4765905;29;20039;-90
2022/02/25 02:31:19;;;;;;;1.00;0.80;;;;;;;-145.06;0.00;60892.56;4768533;29;20035;-89
2022/02/25 02:33:58;;;;;;;2.78;1.00;;;;;;;187.52;0.00;60892.56;4768536;29;20165;-90
2022/02/25 02:36:39;;;;;;;2.47;1.27;;;;;;;-145.06;0.00;60892.56;4778038;29;20051;-89
2022/02/25 02:39:18;;;;;;;2.78;1.10;;;;;;;-145.06;0.00;60892.56;4762433;29;20123;-89
2022/02/25 02:41:57;;;;;;;2.85;0.80;;;;;;;-145.06;0.00;60892.56;4785236;28;20118;-89
2022/02/25 02:44:36;;;;;;;2.37;1.20;;;;;;;-145.06;0.00;60892.56;4768513;29;20047;-87
2022/02/25 02:47:15;;;;;;;2.75;0.98;;;;;;;-145.06;0.00;60892.56;4774012;29;20610;-87
2022/02/25 02:49:54;;;;;;;2.47;1.05;;;;;;;-145.06;0.00;60892.56;4767555;29;20031;-90
2022/02/25 02:52:33;;;;;;;5.05;1.33;;;;;;;-145.06;0.00;60892.56;4782467;29;20043;-90
2022/02/25 02:55:12;;;;;;;2.97;1.23;;;;;;;-145.06;0.00;60892.56;4777405;28;20067;-90
2022/02/25 02:57:51;;;;;;;3.03;0.90;;;;;;;-145.06;0.00;60892.56;4772086;29;20477;-89
2022/02/25 03:00:30;;;;;;;4.25;1.27;;;;;;;-145.06;0.00;60892.56;4767115;29;20386;-90
2022/02/25 03:03:10;;;;;;;2.10;0.70;;;;;;;-145.06;0.00;60892.56;4782821;28;20481;-89
2022/02/25 03:05:49;;;;;;;2.92;1.20;;;;;;;-145.06;0.00;60892.56;4766917;29;20031;-89
2022/02/25 03:08:29;;;;;;;3.45;1.10;;;;;;;-145.06;0.00;60892.56;4796511;28;20081;-89
2022/02/25 03:11:08;;;;;;;1.88;1.17;;;;;;;3.15;0.00;60892.56;4787538;28;20117;-89
2022/02/25 03:13:47;;;;;;;3.60;0.90;;;;;;;-145.06;0.00;60892.56;4762293;29;20035;-88
2022/02/25 03:16:26;;;;;;;4.82;1.70;;;;;;;-145.06;0.00;60892.56;4782707;28;20114;-89
2022/02/25 03:19:05;;;;;;;2.95;1.15;;;;;;;-145.06;0.00;60892.56;4774421;29;20628;-89
2022/02/25 03:21:44;;;;;;;3.17;1.23;;;;;;;-145.06;0.00;60892.56;4781616;29;20062;-89
2022/02/25 03:24:23;;;;;;;3.58;1.23;;;;;;;-145.06;0.00;60892.56;4772828;28;20035;-90
2022/02/25 03:27:02;;;;;;;2.23;1.10;;;;;;;-145.06;0.00;60892.56;4765949;29;20437;-90
2022/02/25 03:29:41;;;;;;;4.15;1.27;;;;;;;-145.06;0.00;60892.56;4782541;28;20287;-89
2022/02/25 03:32:21;;;;;;;2.45;1.10;;;;;;;-145.06;0.00;60892.56;4772660;28;20046;-89
2022/02/25 03:34:59;;;;;;;3.80;1.10;;;;;;;3.21;0.00;60892.56;4793733;28;20031;-89
2022/02/25 03:37:39;;;;;;;3.67;1.33;;;;;;;-145.06;0.00;60892.56;4783746;28;20046;-89
2022/02/25 03:40:18;;;;;;;3.33;1.17;;;;;;;-145.06;0.00;60892.56;4780849;28;20050;-89
2022/02/25 03:42:57;;;;;;;5.43;1.15;;;;;;;-145.06;0.00;60892.56;4772902;28;20039;-90
2022/02/25 03:45:36;;;;;;;3.20;1.15;;;;;;;-145.06;0.00;60892.56;4791434;28;20660;-90
2022/02/25 03:48:15;;;;;;;3.30;1.52;;;;;;;-145.06;0.00;60892.56;4772938;29;20031;-89
2022/02/25 03:50:54;;;;;;;1.93;1.10;;;;;;;-145.06;0.00;60892.56;4766789;29;20540;-90
2022/02/25 03:53:32;;;;;;;5.97;1.38;;;;;;;-145.06;0.00;60892.56;4777761;29;20378;-91
2022/02/25 03:56:12;;;;;;;5.50;1.50;;;;;;;-145.06;0.00;60892.56;4783347;28;20034;-90
2022/02/25 03:58:52;;;;;;;;;;;;;;;-145.06;0.00;60892.56;4791475;28;20102;-89
2022/02/25 04:01:31;;;;;;;;;;;;;;;-145.06;0.00;60892.56;4764852;28;20313;-89
2022/02/25 04:04:10;;;;;;;4.40;1.38;;;;;;;-145.06;0.00;60892.56;4780152;29;19915;-89
2022/02/25 04:06:49;;;;;;;2.17;1.07;;;;;;;187.52;0.00;60892.56;4765893;29;20031;-89
2022/02/25 04:09:29;;;;;;;4.68;1.35;;;;;;;-145.06;0.00;60892.56;4759604;29;20066;-90
2022/02/25 04:12:08;;;;;;;9.20;1.58;;;;;;;-145.06;0.00;60892.56;4763715;29;20482;-89
2022/02/25 04:14:47;;;;;;;4.63;1.13;;;;;;;-145.06;0.00;60892.56;4775924;29;20039;-90
2022/02/25 04:17:26;;;;;;;5.23;1.67;;;;;;;-145.06;0.00;60892.56;4765756;28;20043;-89
2022/02/25 04:20:06;;;;;;;4.25;1.80;;;;;;;-145.06;0.00;60892.56;4788650;28;20492;-89
2022/02/25 04:22:45;;;;;;;5.88;1.90;;;;;;;-145.06;0.00;60892.56;4770306;29;20039;-89
2022/02/25 04:25:24;;;;;;;5.90;1.48;;;;;;;-145.06;0.00;60892.56;4767417;29;20497;-89
2022/02/25 04:28:03;;;;;;;3.88;1.10;;;;;;;-145.06;0.00;60892.56;4783755;28;20043;-89
2022/02/25 04:30:42;;;;;;;4.50;1.15;;;;;;;-145.06;0.00;60892.56;4762414;29;20039;-90
2022/02/25 04:33:21;;;;;;;4.80;1.58;;;;;;;-145.06;0.00;60892.56;4766601;28;20737;-89
2022/02/25 04:36:00;;;;;;;8.35;1.83;;;;;;;-145.06;0.00;60892.56;4766730;29;20043;-89
2022/02/25 04:38:39;;;;;;;6.87;2.20;;;;;;;-145.06;0.00;60892.56;4778932;29;20038;-89
2022/02/25 04:41:20;;;;;;;2.83;1.47;;;;;;;-145.06;0.00;60892.56;4773180;29;20047;-90
2022/02/25 04:43:59;;;;;;;3.88;1.20;;;;;;;-145.06;0.00;60892.56;4766463;29;20039;-89
2022/02/25 04:46:39;;;;;;;4.80;1.13;;;;;;;-145.06;0.00;60892.56;4769546;29;20366;-88
2022/02/25 04:49:19;;;;;;;4.78;1.30;;;;;;;-145.06;0.00;60892.56;4766882;29;20031;-89
2022/02/25 04:51:58;;;;;;;7.60;1.87;;;;;;;-145.06;0.00;60892.56;4782700;29;20485;-90
2022/02/25 04:54:36;;;;;;;5.40;1.52;;;;;;;-145.06;0.00;60892.56;4782977;29;20066;-89
2022/02/25 04:57:16;;;;;;;2.42;1.00;;;;;;;-145.06;0.00;60892.56;4776953;28;20047;-91
2022/02/25 04:59:55;;;;;;;3.65;1.48;;;;;;;3.15;0.00;60892.56;4768078;29;20031;-89
2022/02/25 05:02:34;;;;;;;4.37;1.40;;;;;;;-145.06;0.00;60892.56;4782914;28;20386;-90
2022/02/25 05:05:13;;;;;;;5.07;1.65;;;;;;;-145.06;0.00;60892.56;4768245;28;20749;-90
2022/02/25 05:07:52;;;;;;;4.78;1.30;;;;;;;-145.06;0.00;60892.56;4769425;29;20640;-89
2022/02/25 05:10:32;;;;;;;3.17;1.30;;;;;;;-145.06;0.00;60892.56;4777255;29;20114;-89
2022/02/25 05:13:11;;;;;;;6.40;1.70;;;;;;;-145.06;0.00;60892.56;4783451;29;20051;-90
2022/02/25 05:20:15;;;;;;;3.17;1.00;;;;;;;-145.06;0.00;60892.56;4797413;28;20070;-89
2022/02/25 05:22:05;;;;;;;7.18;1.20;;;;;;;-145.06;0.00;60892.56;4783328;28;20031;-89
2022/02/25 05:24:44;;;;;;;5.07;1.30;;;;;;;-145.06;0.00;60892.56;4782316;29;20039;-89
2022/02/25 05:27:23;;;;;;;3.03;1.07;;;;;;;-145.06;0.00;60892.56;4775859;28;20077;-90
2022/02/25 05:30:03;;;;;;;6.13;1.23;;;;;;;-145.06;0.00;60892.56;4774217;28;20019;-89
2022/02/25 05:32:44;;;;;;;4.95;1.42;;;;;;;-145.06;0.00;60892.56;4782623;28;20039;-89
2022/02/25 05:35:24;;;;;;;4.93;1.45;;;;;;;-145.06;0.00;60892.56;4768063;28;20106;-90
2022/02/25 05:38:03;;;;;;;7.75;1.55;;;;;;;-145.06;0.00;60892.56;4767655;29;20038;-89
2022/02/25 05:40:42;;;;;;;5.88;1.35;;;;;;;-145.06;0.00;60892.56;4773485;29;20373;-89
2022/02/25 05:43:22;;;;;;;5.88;1.70;;;;;;;-145.06;0.00;60892.56;4769135;29;21833;-89
2022/02/25 05:46:01;;;;;;;4.60;1.75;;;;;;;-145.06;0.00;60892.56;4768946;29;20043;-89
2022/02/25 05:48:40;;;;;;;8.30;1.87;;;;;;;-145.06;0.00;60892.56;4782612;28;20027;-89
2022/02/25 05:51:19;;;;;;;;;;;;;;;-145.06;0.00;60892.56;4768756;29;20756;-89
2022/02/25 05:53:58;;;;;;;5.90;1.55;;;;;;;-145.06;0.00;60892.56;4769469;28;19914;-89
2022/02/25 05:56:37;;;;;;;4.33;1.27;;;;;;;-145.06;0.00;60892.56;4763768;29;20031;-89
2022/02/25 05:59:16;;;;;;;4.40;1.33;;;;;;;-145.06;0.00;60892.56;4768616;29;20039;-89
2022/02/25 06:01:56;;;;;;;6.28;1.48;;;;;;;-145.06;0.00;60892.56;4776211;28;20039;-89
2022/02/25 06:04:35;;;;;;;4.28;1.20;;;;;;;-145.06;0.00;60892.56;4780001;28;20074;-88
2022/02/25 06:07:14;;;;;;;6.07;1.48;;;;;;;-145.06;0.00;60892.56;4774157;29;20059;-88
2022/02/25 06:09:53;;;;;;;6.13;1.67;;;;;;;-145.06;0.00;60892.56;4768470;29;20066;-89
2022/02/25 06:12:32;;;;;;;6.07;1.60;;;;;;;-145.06;0.00;60892.56;4768092;29;20050;-89
2022/02/25 06:15:11;;;;;;;3.50;1.57;;;;;;;-145.06;0.00;60892.56;4769991;29;20043;-89
2022/02/25 06:17:50;;;;;;;4.85;1.52;;;;;;;-145.06;0.00;60892.56;4772906;29;20050;-89
2022/02/25 06:20:29;;;;;;;3.97;1.52;;;;;;;187.52;0.00;60892.56;4788137;28;20039;-88
2022/02/25 06:23:09;;;;;;;5.78;1.55;;;;;;;-145.06;0.00;60892.56;4802267;28;20026;-89
2022/02/25 06:25:48;;;;;;;6.00;1.85;;;;;;;3.58;0.00;60892.56;4790675;28;20039;-87
2022/02/25 06:28:27;;;;;;;6.32;1.60;;;;;;;21.08;0.00;60892.56;4778031;28;20096;-89
2022/02/25 06:31:06;;;;;;;6.00;1.60;;;;;;;21.08;0.00;60892.56;4774042;28;20042;-89
2022/02/25 06:33:45;;;;;;;5.03;1.60;;;;;;;-145.06;0.00;60892.56;4787650;28;20034;-88
2022/02/25 06:36:24;;;;;;;7.00;1.60;;;;;;;-145.06;0.00;60892.56;4781642;28;20609;-88
2022/02/25 06:39:04;;;;;;;5.53;1.25;;;;;;;-145.06;0.00;60892.56;4774294;28;20031;-90
2022/02/25 06:41:43;;;;;;;4.50;1.60;;;;;;;4.19;0.00;60892.56;4763737;29;20039;-89
2022/02/25 06:44:22;;;;;;;6.53;1.53;;;;;;;10.68;0.00;60892.56;4780078;29;20039;-88
2022/02/25 06:47:01;;;;;;;6.03;1.67;;;;;;;-145.06;0.00;60892.56;4768048;29;20031;-88
2022/02/25 06:49:40;;;;;;;3.83;1.33;;;;;;;-145.06;0.00;60892.56;4778776;29;20282;-89
2022/02/25 06:52:19;;;;;;;5.05;1.50;;;;;;;-145.06;0.00;60892.56;4770074;28;20266;-88
2022/02/25 06:54:57;;;;;;;9.70;2.22;;;;;;;-145.06;0.00;60892.56;4784029;28;20054;-88
2022/02/25 06:57:36;;;;;;;4.60;1.50;;;;;;;187.52;0.00;60892.56;4786513;28;20035;-88
2022/02/25 07:00:21;;;;;;;5.93;1.48;;;;;;;-145.06;0.00;60892.56;4755742;29;20117;-87
2022/02/25 07:03:00;;;;;;;4.50;1.75;;;;;;;21.08;0.00;60892.56;4776293;28;20042;-88
2022/02/25 07:05:40;;;;;;;3.00;1.02;;;;;;;-145.06;0.00;60892.56;4767364;29;20378;-87
2022/02/25 07:08:20;;;;;;;5.77;1.30;;;;;;;-145.06;0.00;60892.56;4773907;29;20478;-87
2022/02/25 07:10:59;;;;;;;2.58;1.15;;;;;;;-145.06;0.00;60892.56;4780468;28;20043;-88
2022/02/25 07:13:38;;;;;;;9.13;1.90;;;;;;;-145.06;0.00;60892.56;4783045;28;20074;-88
2022/02/25 07:16:17;;;;;;;6.60;1.70;;;;;;;-145.06;0.00;60892.56;4775304;28;20038;-87
2022/02/25 07:18:56;;;;;;;7.03;1.42;;;;;;;4.19;0.00;60892.56;4770953;29;20274;-89
2022/02/25 07:21:35;;;;;;;5.13;1.40;;;;;;;4.02;0.00;60892.56;4766641;28;20488;-88
2022/02/25 07:24:14;;;;;;;7.67;1.90;;;;;;;4.03;0.00;60892.56;4763085;28;20266;-87
2022/02/25 07:26:53;;;;;;;3.77;1.30;;;;;;;-145.06;0.00;60892.56;4759051;29;20043;-88
2022/02/25 07:29:32;;;;;;;6.00;1.60;;;;;;;5.49;0.00;60892.56;4774225;28;20279;-87
2022/02/25 07:32:11;;;;;;;3.45;1.38;;;;;;;4.06;0.00;60892.56;4762613;29;20051;-88
2022/02/25 07:34:50;;;;;;;5.05;1.80;;;;;;;4.11;0.00;60892.56;4776197;28;20548;-86
2022/02/25 07:37:29;;;;;;;4.70;1.60;;;;;;;-145.06;0.00;60892.56;4774152;29;20042;-88
2022/02/25 07:40:10;;;;;;;3.83;1.60;;;;;;;4.11;0.00;60892.56;4774253;28;20035;-88
2022/02/25 07:42:49;;;;;;;6.32;1.65;;;;;;;-145.06;0.00;60892.56;4761279;29;20266;-87
2022/02/25 07:45:28;;;;;;;4.72;1.50;;;;;;;-145.06;0.00;60892.56;4773549;28;20043;-88
2022/02/25 07:48:07;;;;;;;5.32;1.50;;;;;;;-145.06;0.00;60892.56;4773605;28;20039;-87
2022/02/25 07:50:48;;;;;;;9.40;2.08;;;;;;;-145.06;0.00;60892.56;4761818;28;20043;-88
2022/02/25 07:53:30;;;;;;;6.00;1.80;;;;;;;-145.06;0.00;60892.56;4774002;29;20046;-88
2022/02/25 07:56:09;;;;;;;8.38;2.20;;;;;;;21.08;0.00;60892.56;4775482;29;20043;-88
2022/02/25 07:58:49;;;;;;;6.35;1.70;;;;;;;-145.06;0.00;60892.56;4759967;29;20027;-87
2022/02/25 08:01:28;;;;;;;7.15;1.85;;;;;;;-145.06;0.00;60892.56;4777838;28;20035;-88
2022/02/25 08:04:08;;;;;;;6.05;1.73;;;;;;;-145.06;0.00;60892.56;4759165;28;20035;-88
2022/02/25 08:06:46;;;;;;;5.05;1.60;;;;;;;-145.06;0.00;60892.56;4764665;29;20035;-88
2022/02/25 08:09:26;;;;;;;8.13;2.03;;;;;;;-145.06;0.00;60892.56;4773531;29;20027;-88
2022/02/25 08:12:05;;;;;;;5.13;1.45;;;;;;;-145.06;0.00;60892.56;4765754;28;20070;-89
2022/02/25 08:14:44;;;;;;;5.57;1.73;;;;;;;-145.06;0.00;60892.56;4761462;29;20035;-88
2022/02/25 08:17:23;;;;;;;8.52;1.80;;;;;;;-145.06;0.00;60892.56;4765439;28;20266;-88
2022/02/25 08:20:04;;;;;;;4.53;1.80;;;;;;;-145.06;0.00;60892.56;4777967;28;20481;-88
2022/02/25 08:22:43;;;;;;;7.93;1.90;;;;;;;-145.06;0.00;60892.56;4778199;28;20126;-88
2022/02/25 08:25:23;;;;;;;7.25;1.85;;;;;;;-145.06;0.00;60892.56;4762021;28;20047;-89
2022/02/25 08:28:07;;;;;;;6.07;1.98;;;;;;;-145.06;0.00;60892.56;4761237;29;20035;-89
2022/02/25 08:30:46;;;;;;;7.22;2.10;;;;;;;-145.06;0.00;60892.56;4764253;29;21623;-88
2022/02/25 08:33:25;;;;;;;6.38;1.73;;;;;;;-145.06;0.00;60892.56;4762716;29;20034;-89
2022/02/25 08:36:05;;;;;;;6.18;1.70;;;;;;;-145.06;0.00;60892.56;4780686;28;20493;-87
2022/02/25 08:38:45;;;;;;;5.60;1.70;;;;;;;-145.06;0.00;60892.56;4780480;28;20109;-88
2022/02/25 08:41:25;;;;;;;;;;;;;;;-145.06;0.00;60892.56;4765937;29;20035;-88
2022/02/25 08:44:05;;;;;;;7.53;2.05;;;;;;;-145.06;0.00;60892.56;4784981;28;19915;-87
2022/02/25 08:46:45;;;;;;;5.82;1.63;;;;;;;-145.06;0.00;60892.56;4767135;29;20051;-87
2022/02/25 08:49:23;;;;;;;;;;;;;;;-145.06;0.00;60892.56;4772642;29;20593;-88
2022/02/25 08:52:04;;;;;;;6.68;1.70;;;;;;;-145.06;0.00;60892.56;4768912;29;19922;-88
2022/02/25 08:54:43;;;;;;;5.32;1.42;;;;;;;-145.06;0.00;60892.56;4753515;29;20035;-87
2022/02/25 08:57:22;;;;;;;5.63;1.65;;;;;;;-145.06;0.00;60892.56;4759843;29;20134;-87
2022/02/25 09:00:02;;;;;;;5.35;1.30;;;;;;;-145.06;0.00;60892.56;4798462;28;20026;-87
2022/02/25 09:02:41;;;;;;;5.80;1.60;;;;;;;-145.06;0.00;60892.56;4787021;28;20054;-88
2022/02/25 09:05:22;;;;;;;5.28;1.55;;;;;;;-145.06;0.00;60892.56;4773669;28;20039;-89
2022/02/25 09:08:00;;;;;;;4.45;1.65;;;;;;;-145.06;0.00;60892.56;4784626;28;20024;-88
2022/02/25 09:10:41;;;;;;;5.10;1.55;;;;;;;-145.06;0.00;60892.56;4773891;28;20110;-87
2022/02/25 09:13:20;;;;;;;6.10;1.70;;;;;;;-145.06;0.00;60892.56;4762540;29;20034;-88
2022/02/25 09:15:59;;;;;;;5.20;1.88;;;;;;;-145.06;0.00;60892.56;4770276;28;20038;-88
2022/02/25 09:18:38;;;;;;;9.30;2.05;;;;;;;-145.06;0.00;60892.56;4788814;28;20035;-88
2022/02/25 09:21:17;;;;;;;3.67;1.30;;;;;;;-145.06;0.00;60892.56;4789471;28;20122;-89
2022/02/25 09:23:56;;;;;;;5.17;1.80;;;;;;;-145.06;0.00;60892.56;4780396;28;20043;-87
2022/02/25 09:26:36;;;;;;;3.92;1.60;;;;;;;-145.06;0.00;60892.56;4768981;29;20035;-87
2022/02/25 09:29:15;;;;;;;4.65;1.60;;;;;;;-145.06;0.00;60892.56;4781708;29;20027;-87
2022/02/25 09:31:54;;;;;;;5.93;1.83;;;;;;;-145.06;0.00;60892.56;4789308;28;20031;-87
2022/02/25 09:34:34;;;;;;;5.22;2.10;;;;;;;-145.06;0.00;60892.56;4787604;28;20027;-88
2022/02/25 09:37:13;;;;;;;6.93;1.92;;;;;;;-145.06;0.00;60892.56;4776008;29;20043;-87
2022/02/25 09:39:53;;;;;;;7.03;2.00;;;;;;;-145.06;0.00;60892.56;4795338;29;20087;-88
2022/02/25 09:42:33;;;;;;;9.77;2.08;;;;;;;-145.06;0.00;60892.56;4788074;29;20592;-88
2022/02/25 09:45:14;;;;;;;;;;;;;;;-145.06;0.00;60892.56;4773975;29;20035;-88
2022/02/25 09:47:53;;;;;;;5.85;1.88;;;;;;;-145.06;0.00;60892.56;4768351;29;19914;-88
2022/02/25 09:50:32;;;;;;;5.32;1.83;;;;;;;-145.06;0.00;60892.56;4776847;29;20031;-87
2022/02/25 09:53:11;;;;;;;7.95;2.10;;;;;;;-145.06;0.00;60892.56;4769277;29;20039;-88
2022/02/25 09:55:50;;;;;;;8.93;2.17;;;;;;;-145.06;0.00;60892.56;4781527;29;20035;-88
2022/02/25 09:58:29;;;;;;;7.82;1.80;;;;;;;-145.06;0.00;60892.56;4781880;29;20028;-88
2022/02/25 10:01:10;;;;;;;4.35;1.90;;;;;;;-145.06;0.00;60892.56;4783110;28;20070;-87
2022/02/25 10:03:53;;;;;;;7.38;2.28;;;;;;;-145.06;0.00;60892.56;4783698;28;20031;-88
2022/02/25 10:06:31;;;;;;;7.25;1.98;;;;;;;-145.06;0.00;60892.56;4768035;29;20031;-87
2022/02/25 10:09:31;;;;;;;8.05;2.20;;;;;;;-145.06;0.00;60892.56;4781111;29;20110;-89
2022/02/25 10:12:12;;;;;;;;;;;;;;;-145.06;0.00;60892.56;4776558;29;20031;-88
2022/02/25 10:14:51;;;;;;;6.68;2.10;;;;;;;-145.06;0.00;60892.56;4786408;28;20265;-88
2022/02/25 10:17:30;;;;;;;4.75;1.60;;;;;;;-145.06;0.00;60892.56;4795633;28;20031;-89
2022/02/25 10:20:10;;;;;;;10.05;2.10;;;;;;;-145.06;0.00;60892.56;4792298;28;20043;-88
2022/02/25 10:22:49;;;;;;;10.05;2.05;;;;;;;-145.06;0.00;60892.56;4767887;29;20130;-88
2022/02/25 10:25:33;;;;;;;11.70;2.40;;;;;;;-145.06;0.00;60892.56;4772365;28;20504;-86
2022/02/25 10:28:12;;;;;;;8.93;2.08;;;;;;;-145.06;0.00;60892.56;4767893;29;20019;-89
2022/02/25 10:30:51;;;;;;;13.03;3.10;;;;;;;-145.06;0.00;60892.56;4789771;28;20039;-88
2022/02/25 10:33:37;;;;;;;7.20;1.77;;;;;;;-145.06;0.00;60892.56;4766687;28;20381;-89
2022/02/25 10:36:27;;;;;;;9.32;2.00;;;;;;;-145.06;0.00;60892.56;4781551;29;20023;-89
2022/02/25 10:39:06;;;;;;;9.40;2.33;;;;;;;-145.06;0.00;60892.56;4768025;29;20027;-89
2022/02/25 10:42:16;;;;;;;7.45;1.77;;;;;;;-145.06;0.00;60892.56;4766889;29;20040;-90
2022/02/25 10:44:58;;;;;;;9.95;2.15;;;;;;;8.08;0.00;60892.56;4778014;29;20371;-89
2022/02/25 10:47:43;;;;;;;7.65;2.17;;;;;;;6.95;0.00;60892.56;4767079;29;20043;-89
2022/02/25 10:50:25;;;;;;;6.90;1.90;;;;;;;-145.06;0.00;60892.56;4780414;29;20023;-89
2022/02/25 10:53:06;;;;;;;6.95;1.85;;;;;;;-145.06;0.00;60892.56;4782426;29;20035;-87
2022/02/25 10:55:49;;;;;;;6.68;2.00;;;;;;;-145.06;0.00;60892.56;4781175;29;20035;-89
2022/02/25 10:58:37;;;;;;;5.07;1.60;;;;;;;8.08;0.00;60892.56;4763882;29;20031;-89
2022/02/25 11:01:21;;;;;;;6.30;1.60;;;;;;;21.08;0.00;60892.56;4773933;28;20023;-88
2022/02/25 11:04:03;;;;;;;5.55;1.75;;;;;;;10.68;0.00;60892.56;4780382;29;20027;-89
2022/02/25 11:06:43;;;;;;;4.65;1.60;;;;;;;8.08;0.00;60892.56;4781456;29;20114;-88
2022/02/25 11:09:24;;;;;;;8.40;2.40;;;;;;;-145.06;0.00;60892.56;4781634;29;20031;-89
2022/02/25 11:12:04;;;;;;;8.95;2.58;;;;;;;-145.06;0.00;60892.56;4781967;29;20106;-89
2022/02/25 11:14:43;;;;;;;5.50;1.88;;;;;;;-145.06;0.00;60892.56;4797174;28;20425;-88
2022/02/25 11:17:22;;;;;;;8.90;1.73;;;;;;;-145.06;0.00;60892.56;4784542;28;20031;-89
2022/02/25 11:20:05;;;;;;;5.55;1.80;;;;;;;10.68;0.00;60892.56;4782588;29;20027;-89
2022/02/25 11:22:45;;;;;;;4.53;1.58;;;;;;;8.08;0.00;60892.56;4774111;29;20039;-89
2022/02/25 11:25:24;;;;;;;6.43;1.95;;;;;;;-145.06;0.00;60892.56;4755407;29;20071;-89
2022/02/25 11:28:04;;;;;;;9.30;2.58;;;;;;;-145.06;0.00;60892.56;4782054;29;20489;-89
2022/02/25 11:30:46;;;;;;;8.70;2.10;;;;;;;-145.06;0.00;60892.56;4774828;28;20039;-90
2022/02/25 11:33:26;;;;;;;7.82;2.15;;;;;;;-145.06;0.00;60892.56;4772329;29;20059;-90
2022/02/25 11:36:10;;;;;;;4.70;1.80;;;;;;;-145.06;0.00;60892.56;4767888;29;20035;-90
2022/02/25 11:38:50;;;;;;;6.82;2.00;;;;;;;8.08;0.00;60892.56;4780864;29;20027;-90
2022/02/25 11:41:29;;;;;;;4.40;1.60;;;;;;;-145.06;0.00;60892.56;4767508;29;20118;-89
2022/02/25 11:44:13;;;;;;;10.40;2.50;;;;;;;-145.06;0.00;60892.56;4767398;29;20035;-90
2022/02/25 11:46:54;;;;;;;7.10;1.77;;;;;;;-145.06;0.00;60892.56;4780031;29;20028;-89
2022/02/25 11:49:37;;;;;;;8.57;1.83;;;;;;;-145.06;0.00;60892.56;4775184;29;20055;-89
2022/02/25 11:52:29;;;;;;;6.05;2.05;;;;;;;7.78;0.00;60892.56;4792186;28;20070;-89
2022/02/25 11:55:21;;;;;;;5.30;2.00;;;;;;;-145.06;0.00;60892.56;4769910;29;20031;-89
2022/02/25 11:58:38;;;;;;;5.68;1.80;;;;;;;-145.06;0.00;60892.56;4779761;29;20027;-90
2022/02/25 12:01:19;;;;;;;3.20;1.58;;;;;;;-145.06;0.00;60892.56;4770057;28;20101;-89
2022/02/25 12:04:07;;;;;;;4.03;1.58;;;;;;;-145.06;0.00;60892.56;4781647;28;20039;-88
2022/02/25 12:06:55;;;;;;;3.65;1.63;;;;;;;7.83;0.00;60892.56;4786969;28;20039;-89
2022/02/25 12:09:40;;;;;;;4.93;1.77;;;;;;;-145.06;0.00;60892.56;4748550;29;20107;-89
2022/02/25 12:12:22;;;;;;;5.55;1.70;;;;;;;-145.06;0.00;60892.56;4748592;29;20036;-89
2022/02/25 12:15:01;;;;;;;6.63;2.03;;;;;;;7.94;0.00;60892.56;4747684;29;20040;-89
2022/02/25 12:17:56;;;;;;;5.40;1.77;;;;;;;7.91;0.00;60892.56;4748206;29;20039;-90
2022/02/25 12:20:49;;;;;;;6.90;2.13;;;;;;;-145.06;0.00;60892.56;4759817;28;20026;-89
2022/02/25 12:23:41;;;;;;;6.55;1.83;;;;;;;-145.06;0.00;60892.56;4779945;29;20058;-89
2022/02/25 12:26:30;;;;;;;4.00;1.30;;;;;;;187.52;0.00;60892.56;4766287;29;20031;-89
2022/02/25 12:29:17;;;;;;;5.32;1.80;;;;;;;8.08;0.00;60892.56;4766309;29;20715;-89
2022/02/25 12:31:57;;;;;;;5.28;2.03;;;;;;;-145.06;0.00;60892.56;4787577;28;20034;-89